sensor_id;sensor_type;location;lat;lon;timestamp;P1;durP1;ratioP1;P2;durP2;ratioP2
11486;SDS011;10510;47.942;9.442;2022-07-18T00:00:29;4.25;;;2.42;;
11486;SDS011;10510;47.942;9.442;2022-07-18T00:02:29;7.55;;;3.00;;
11486;SDS011;10510;47.942;9.442;2022-07-18T00:04:30;7.82;;;2.60;;
11486;SDS011;10510;47.942;9.442;2022-07-18T00:06:30;3.88;;;2.53;;
11486;SDS011;10510;47.942;9.442;2022-07-18T00:08:31;7.00;;;2.70;;
11486;SDS011;10510;47.942;9.442;2022-07-18T00:10:31;4.05;;;2.40;;
11486;SDS011;10510;47.942;9.442;2022-07-18T00:12:31;3.58;;;2.53;;
11486;SDS011;10510;47.942;9.442;2022-07-18T00:14:32;4.40;;;2.70;;
11486;SDS011;10510;47.942;9.442;2022-07-18T00:16:33;5.55;;;2.45;;
11486;SDS011;10510;47.942;9.442;2022-07-18T00:18:33;5.60;;;2.67;;
11486;SDS011;10510;47.942;9.442;2022-07-18T00:20:34;4.05;;;2.88;;
11486;SDS011;10510;47.942;9.442;2022-07-18T00:22:34;4.03;;;3.10;;
11486;SDS011;10510;47.942;9.442;2022-07-18T00:24:34;6.15;;;2.80;;
11486;SDS011;10510;47.942;9.442;2022-07-18T00:26:37;5.03;;;2.92;;
11486;SDS011;10510;47.942;9.442;2022-07-18T00:28:38;3.47;;;2.60;;
11486;SDS011;10510;47.942;9.442;2022-07-18T00:30:38;3.38;;;2.67;;
11486;SDS011;10510;47.942;9.442;2022-07-18T00:32:39;3.13;;;2.47;;
11486;SDS011;10510;47.942;9.442;2022-07-18T00:34:39;4.38;;;2.30;;
11486;SDS011;10510;47.942;9.442;2022-07-18T00:36:39;3.22;;;2.50;;
11486;SDS011;10510;47.942;9.442;2022-07-18T00:38:40;4.28;;;3.08;;
11486;SDS011;10510;47.942;9.442;2022-07-18T00:40:40;3.38;;;2.70;;
11486;SDS011;10510;47.942;9.442;2022-07-18T00:42:41;2.80;;;2.40;;
11486;SDS011;10510;47.942;9.442;2022-07-18T00:44:41;2.88;;;2.30;;
11486;SDS011;10510;47.942;9.442;2022-07-18T00:46:41;2.92;;;2.15;;
11486;SDS011;10510;47.942;9.442;2022-07-18T00:48:42;3.25;;;2.55;;
11486;SDS011;10510;47.942;9.442;2022-07-18T00:50:44;4.53;;;2.63;;
11486;SDS011;10510;47.942;9.442;2022-07-18T00:52:44;3.08;;;2.45;;
11486;SDS011;10510;47.942;9.442;2022-07-18T00:54:45;5.63;;;2.40;;
11486;SDS011;10510;47.942;9.442;2022-07-18T00:56:46;5.00;;;2.60;;
11486;SDS011;10510;47.942;9.442;2022-07-18T00:58:48;5.10;;;2.58;;
11486;SDS011;10510;47.942;9.442;2022-07-18T01:00:48;4.15;;;2.53;;
11486;SDS011;10510;47.942;9.442;2022-07-18T01:03:07;4.55;;;2.88;;
11486;SDS011;10510;47.942;9.442;2022-07-18T01:05:08;4.53;;;2.88;;
11486;SDS011;10510;47.942;9.442;2022-07-18T01:07:09;3.28;;;2.30;;
11486;SDS011;10510;47.942;9.442;2022-07-18T01:09:10;5.25;;;2.88;;
11486;SDS011;10510;47.942;9.442;2022-07-18T01:11:10;6.03;;;2.90;;
11486;SDS011;10510;47.942;9.442;2022-07-18T01:13:11;3.28;;;2.63;;
11486;SDS011;10510;47.942;9.442;2022-07-18T01:15:11;4.40;;;3.08;;
11486;SDS011;10510;47.942;9.442;2022-07-18T01:17:15;4.97;;;3.05;;
11486;SDS011;10510;47.942;9.442;2022-07-18T01:19:17;6.32;;;2.85;;
11486;SDS011;10510;47.942;9.442;2022-07-18T01:21:17;3.47;;;2.70;;
11486;SDS011;10510;47.942;9.442;2022-07-18T01:23:17;5.47;;;2.95;;
11486;SDS011;10510;47.942;9.442;2022-07-18T01:25:18;3.85;;;2.58;;
11486;SDS011;10510;47.942;9.442;2022-07-18T01:27:19;5.60;;;2.90;;
11486;SDS011;10510;47.942;9.442;2022-07-18T01:29:21;4.82;;;2.72;;
11486;SDS011;10510;47.942;9.442;2022-07-18T01:31:21;3.90;;;2.33;;
11486;SDS011;10510;47.942;9.442;2022-07-18T01:33:21;2.90;;;2.40;;
11486;SDS011;10510;47.942;9.442;2022-07-18T01:35:22;4.15;;;2.55;;
11486;SDS011;10510;47.942;9.442;2022-07-18T01:37:22;5.40;;;2.88;;
11486;SDS011;10510;47.942;9.442;2022-07-18T01:39:23;4.00;;;2.60;;
11486;SDS011;10510;47.942;9.442;2022-07-18T01:41:23;3.28;;;2.80;;
11486;SDS011;10510;47.942;9.442;2022-07-18T01:43:24;3.28;;;2.45;;
11486;SDS011;10510;47.942;9.442;2022-07-18T01:45:24;3.22;;;2.33;;
11486;SDS011;10510;47.942;9.442;2022-07-18T01:47:24;3.35;;;2.53;;
11486;SDS011;10510;47.942;9.442;2022-07-18T01:49:25;3.30;;;2.53;;
11486;SDS011;10510;47.942;9.442;2022-07-18T01:51:26;3.00;;;2.65;;
11486;SDS011;10510;47.942;9.442;2022-07-18T01:53:26;3.58;;;2.60;;
11486;SDS011;10510;47.942;9.442;2022-07-18T01:55:27;4.00;;;2.92;;
11486;SDS011;10510;47.942;9.442;2022-07-18T01:57:28;4.78;;;3.10;;
11486;SDS011;10510;47.942;9.442;2022-07-18T01:59:28;3.53;;;2.67;;
11486;SDS011;10510;47.942;9.442;2022-07-18T02:01:28;7.90;;;2.90;;
11486;SDS011;10510;47.942;9.442;2022-07-18T02:03:28;5.75;;;3.08;;
11486;SDS011;10510;47.942;9.442;2022-07-18T02:05:29;7.82;;;2.95;;
11486;SDS011;10510;47.942;9.442;2022-07-18T02:07:30;5.97;;;2.65;;
11486;SDS011;10510;47.942;9.442;2022-07-18T02:09:32;7.07;;;3.28;;
11486;SDS011;10510;47.942;9.442;2022-07-18T02:11:33;3.30;;;2.90;;
11486;SDS011;10510;47.942;9.442;2022-07-18T02:13:34;3.72;;;3.15;;
11486;SDS011;10510;47.942;9.442;2022-07-18T02:15:35;3.63;;;3.25;;
11486;SDS011;10510;47.942;9.442;2022-07-18T02:17:35;5.32;;;4.13;;
11486;SDS011;10510;47.942;9.442;2022-07-18T02:19:36;5.72;;;3.50;;
11486;SDS011;10510;47.942;9.442;2022-07-18T02:21:36;4.93;;;3.35;;
11486;SDS011;10510;47.942;9.442;2022-07-18T02:23:37;5.07;;;2.90;;
11486;SDS011;10510;47.942;9.442;2022-07-18T02:25:37;4.03;;;3.03;;
11486;SDS011;10510;47.942;9.442;2022-07-18T02:27:37;3.63;;;3.08;;
11486;SDS011;10510;47.942;9.442;2022-07-18T02:29:38;3.58;;;3.05;;
11486;SDS011;10510;47.942;9.442;2022-07-18T02:31:39;5.80;;;3.35;;
11486;SDS011;10510;47.942;9.442;2022-07-18T02:33:40;5.38;;;3.40;;
11486;SDS011;10510;47.942;9.442;2022-07-18T02:35:40;4.30;;;3.28;;
11486;SDS011;10510;47.942;9.442;2022-07-18T02:37:41;7.25;;;3.10;;
11486;SDS011;10510;47.942;9.442;2022-07-18T02:39:41;3.50;;;2.90;;
11486;SDS011;10510;47.942;9.442;2022-07-18T02:41:42;60.95;;;5.85;;
11486;SDS011;10510;47.942;9.442;2022-07-18T02:43:42;3.97;;;3.13;;
11486;SDS011;10510;47.942;9.442;2022-07-18T02:45:42;6.53;;;3.20;;
11486;SDS011;10510;47.942;9.442;2022-07-18T02:47:43;4.30;;;3.15;;
11486;SDS011;10510;47.942;9.442;2022-07-18T02:49:43;4.72;;;3.30;;
11486;SDS011;10510;47.942;9.442;2022-07-18T02:51:43;6.85;;;3.30;;
11486;SDS011;10510;47.942;9.442;2022-07-18T02:53:43;3.42;;;3.03;;
11486;SDS011;10510;47.942;9.442;2022-07-18T02:55:44;4.65;;;3.30;;
11486;SDS011;10510;47.942;9.442;2022-07-18T02:57:44;3.72;;;3.03;;
11486;SDS011;10510;47.942;9.442;2022-07-18T02:59:44;6.93;;;4.05;;
11486;SDS011;10510;47.942;9.442;2022-07-18T03:01:45;6.97;;;3.97;;
11486;SDS011;10510;47.942;9.442;2022-07-18T03:03:45;7.65;;;3.95;;
11486;SDS011;10510;47.942;9.442;2022-07-18T03:05:46;4.75;;;3.80;;
11486;SDS011;10510;47.942;9.442;2022-07-18T03:07:46;6.72;;;3.80;;
11486;SDS011;10510;47.942;9.442;2022-07-18T03:09:46;7.10;;;3.95;;
11486;SDS011;10510;47.942;9.442;2022-07-18T03:11:46;7.80;;;4.18;;
11486;SDS011;10510;47.942;9.442;2022-07-18T03:13:47;5.30;;;4.15;;
11486;SDS011;10510;47.942;9.442;2022-07-18T03:15:47;6.90;;;4.32;;
11486;SDS011;10510;47.942;9.442;2022-07-18T03:17:47;6.35;;;4.13;;
11486;SDS011;10510;47.942;9.442;2022-07-18T03:19:48;6.82;;;4.38;;
11486;SDS011;10510;47.942;9.442;2022-07-18T03:21:48;6.80;;;4.05;;
11486;SDS011;10510;47.942;9.442;2022-07-18T03:23:48;6.22;;;4.47;;
11486;SDS011;10510;47.942;9.442;2022-07-18T03:25:48;5.28;;;4.30;;
11486;SDS011;10510;47.942;9.442;2022-07-18T03:27:49;6.88;;;4.22;;
11486;SDS011;10510;47.942;9.442;2022-07-18T03:29:49;13.30;;;4.30;;
11486;SDS011;10510;47.942;9.442;2022-07-18T03:31:49;4.65;;;3.78;;
11486;SDS011;10510;47.942;9.442;2022-07-18T03:33:50;10.10;;;4.55;;
11486;SDS011;10510;47.942;9.442;2022-07-18T03:35:50;4.82;;;3.75;;
11486;SDS011;10510;47.942;9.442;2022-07-18T03:37:50;16.65;;;4.25;;
11486;SDS011;10510;47.942;9.442;2022-07-18T03:39:50;4.57;;;3.80;;
11486;SDS011;10510;47.942;9.442;2022-07-18T03:41:51;5.43;;;3.72;;
11486;SDS011;10510;47.942;9.442;2022-07-18T03:43:52;6.60;;;3.67;;
11486;SDS011;10510;47.942;9.442;2022-07-18T03:45:52;6.18;;;4.03;;
11486;SDS011;10510;47.942;9.442;2022-07-18T03:47:52;7.68;;;4.43;;
11486;SDS011;10510;47.942;9.442;2022-07-18T03:49:53;6.40;;;3.97;;
11486;SDS011;10510;47.942;9.442;2022-07-18T03:51:53;9.45;;;4.40;;
11486;SDS011;10510;47.942;9.442;2022-07-18T03:53:55;4.20;;;3.53;;
11486;SDS011;10510;47.942;9.442;2022-07-18T03:55:55;8.73;;;4.30;;
11486;SDS011;10510;47.942;9.442;2022-07-18T03:57:56;8.20;;;4.10;;
11486;SDS011;10510;47.942;9.442;2022-07-18T03:59:56;11.73;;;4.10;;
11486;SDS011;10510;47.942;9.442;2022-07-18T04:01:56;7.53;;;4.32;;
11486;SDS011;10510;47.942;9.442;2022-07-18T04:03:57;7.03;;;3.80;;
11486;SDS011;10510;47.942;9.442;2022-07-18T04:05:57;3.67;;;3.13;;
11486;SDS011;10510;47.942;9.442;2022-07-18T04:07:57;6.57;;;4.20;;
11486;SDS011;10510;47.942;9.442;2022-07-18T04:09:58;6.68;;;4.07;;
11486;SDS011;10510;47.942;9.442;2022-07-18T04:11:58;7.25;;;3.83;;
11486;SDS011;10510;47.942;9.442;2022-07-18T04:13:58;7.93;;;3.80;;
11486;SDS011;10510;47.942;9.442;2022-07-18T04:15:59;5.88;;;3.60;;
11486;SDS011;10510;47.942;9.442;2022-07-18T04:17:59;10.60;;;3.70;;
11486;SDS011;10510;47.942;9.442;2022-07-18T04:19:59;5.22;;;3.90;;
11486;SDS011;10510;47.942;9.442;2022-07-18T04:22:00;6.03;;;3.63;;
11486;SDS011;10510;47.942;9.442;2022-07-18T04:24:00;6.50;;;3.42;;
11486;SDS011;10510;47.942;9.442;2022-07-18T04:26:00;4.68;;;3.35;;
11486;SDS011;10510;47.942;9.442;2022-07-18T04:28:01;5.70;;;3.78;;
11486;SDS011;10510;47.942;9.442;2022-07-18T04:30:02;5.30;;;3.83;;
11486;SDS011;10510;47.942;9.442;2022-07-18T04:32:04;6.97;;;4.03;;
11486;SDS011;10510;47.942;9.442;2022-07-18T04:34:04;6.30;;;4.10;;
11486;SDS011;10510;47.942;9.442;2022-07-18T04:36:05;5.63;;;4.45;;
11486;SDS011;10510;47.942;9.442;2022-07-18T04:38:07;6.30;;;3.95;;
11486;SDS011;10510;47.942;9.442;2022-07-18T04:40:09;14.57;;;4.10;;
11486;SDS011;10510;47.942;9.442;2022-07-18T04:42:10;9.43;;;4.45;;
11486;SDS011;10510;47.942;9.442;2022-07-18T04:44:10;5.68;;;4.35;;
11486;SDS011;10510;47.942;9.442;2022-07-18T04:46:11;6.55;;;3.92;;
11486;SDS011;10510;47.942;9.442;2022-07-18T04:48:12;6.40;;;4.30;;
11486;SDS011;10510;47.942;9.442;2022-07-18T04:50:12;5.80;;;4.28;;
11486;SDS011;10510;47.942;9.442;2022-07-18T04:52:12;10.27;;;4.10;;
11486;SDS011;10510;47.942;9.442;2022-07-18T04:54:13;9.55;;;4.32;;
11486;SDS011;10510;47.942;9.442;2022-07-18T04:56:13;7.07;;;3.90;;
11486;SDS011;10510;47.942;9.442;2022-07-18T04:58:13;9.30;;;4.35;;
11486;SDS011;10510;47.942;9.442;2022-07-18T05:00:15;7.18;;;4.60;;
11486;SDS011;10510;47.942;9.442;2022-07-18T05:02:18;6.40;;;5.07;;
11486;SDS011;10510;47.942;9.442;2022-07-18T05:04:18;5.85;;;4.38;;
11486;SDS011;10510;47.942;9.442;2022-07-18T05:06:18;5.32;;;4.03;;
11486;SDS011;10510;47.942;9.442;2022-07-18T05:08:19;8.18;;;4.35;;
11486;SDS011;10510;47.942;9.442;2022-07-18T05:10:20;6.70;;;4.30;;
11486;SDS011;10510;47.942;9.442;2022-07-18T05:12:21;7.22;;;4.43;;
11486;SDS011;10510;47.942;9.442;2022-07-18T05:14:23;6.32;;;4.22;;
11486;SDS011;10510;47.942;9.442;2022-07-18T05:16:23;9.77;;;4.50;;
11486;SDS011;10510;47.942;9.442;2022-07-18T05:18:23;8.45;;;5.20;;
11486;SDS011;10510;47.942;9.442;2022-07-18T05:20:25;6.60;;;4.60;;
11486;SDS011;10510;47.942;9.442;2022-07-18T05:22:26;6.78;;;4.75;;
11486;SDS011;10510;47.942;9.442;2022-07-18T05:24:26;9.00;;;3.95;;
11486;SDS011;10510;47.942;9.442;2022-07-18T05:26:27;5.53;;;3.70;;
11486;SDS011;10510;47.942;9.442;2022-07-18T05:28:27;5.93;;;4.28;;
11486;SDS011;10510;47.942;9.442;2022-07-18T05:30:27;9.40;;;3.90;;
11486;SDS011;10510;47.942;9.442;2022-07-18T05:32:28;7.03;;;4.22;;
11486;SDS011;10510;47.942;9.442;2022-07-18T05:34:28;5.10;;;4.03;;
11486;SDS011;10510;47.942;9.442;2022-07-18T05:36:29;7.85;;;4.32;;
11486;SDS011;10510;47.942;9.442;2022-07-18T05:38:29;6.32;;;3.80;;
11486;SDS011;10510;47.942;9.442;2022-07-18T05:40:29;5.15;;;4.30;;
11486;SDS011;10510;47.942;9.442;2022-07-18T05:42:30;8.10;;;4.40;;
11486;SDS011;10510;47.942;9.442;2022-07-18T05:44:30;13.55;;;4.18;;
11486;SDS011;10510;47.942;9.442;2022-07-18T05:46:31;7.47;;;4.25;;
11486;SDS011;10510;47.942;9.442;2022-07-18T05:48:31;5.78;;;4.35;;
11486;SDS011;10510;47.942;9.442;2022-07-18T05:50:31;10.27;;;4.15;;
11486;SDS011;10510;47.942;9.442;2022-07-18T05:52:32;8.57;;;4.30;;
11486;SDS011;10510;47.942;9.442;2022-07-18T05:54:32;5.35;;;4.22;;
11486;SDS011;10510;47.942;9.442;2022-07-18T05:56:33;5.97;;;4.15;;
11486;SDS011;10510;47.942;9.442;2022-07-18T05:58:33;5.65;;;3.88;;
11486;SDS011;10510;47.942;9.442;2022-07-18T06:00:33;4.90;;;3.63;;
11486;SDS011;10510;47.942;9.442;2022-07-18T06:02:34;6.28;;;3.42;;
11486;SDS011;10510;47.942;9.442;2022-07-18T06:04:34;6.82;;;3.30;;
11486;SDS011;10510;47.942;9.442;2022-07-18T06:06:35;4.70;;;2.95;;
11486;SDS011;10510;47.942;9.442;2022-07-18T06:08:35;3.78;;;2.70;;
11486;SDS011;10510;47.942;9.442;2022-07-18T06:10:36;36.72;;;3.58;;
11486;SDS011;10510;47.942;9.442;2022-07-18T06:12:36;4.75;;;2.50;;
11486;SDS011;10510;47.942;9.442;2022-07-18T06:14:36;3.75;;;2.25;;
11486;SDS011;10510;47.942;9.442;2022-07-18T06:16:37;2.65;;;2.20;;
11486;SDS011;10510;47.942;9.442;2022-07-18T06:18:37;9.25;;;2.65;;
11486;SDS011;10510;47.942;9.442;2022-07-18T06:20:37;2.75;;;1.80;;
11486;SDS011;10510;47.942;9.442;2022-07-18T06:22:38;3.42;;;2.20;;
11486;SDS011;10510;47.942;9.442;2022-07-18T06:24:38;3.42;;;2.17;;
11486;SDS011;10510;47.942;9.442;2022-07-18T06:26:38;2.28;;;2.00;;
11486;SDS011;10510;47.942;9.442;2022-07-18T06:28:38;3.92;;;1.98;;
11486;SDS011;10510;47.942;9.442;2022-07-18T06:30:39;4.15;;;2.40;;
11486;SDS011;10510;47.942;9.442;2022-07-18T06:32:39;6.00;;;2.20;;
11486;SDS011;10510;47.942;9.442;2022-07-18T06:34:40;4.18;;;2.00;;
11486;SDS011;10510;47.942;9.442;2022-07-18T06:36:40;2.63;;;1.92;;
11486;SDS011;10510;47.942;9.442;2022-07-18T06:38:40;4.28;;;2.63;;
11486;SDS011;10510;47.942;9.442;2022-07-18T06:40:41;6.18;;;2.38;;
11486;SDS011;10510;47.942;9.442;2022-07-18T06:42:41;4.50;;;1.75;;
11486;SDS011;10510;47.942;9.442;2022-07-18T06:44:42;3.33;;;1.88;;
11486;SDS011;10510;47.942;9.442;2022-07-18T06:46:43;3.13;;;1.65;;
11486;SDS011;10510;47.942;9.442;2022-07-18T06:48:43;3.30;;;1.98;;
11486;SDS011;10510;47.942;9.442;2022-07-18T06:50:44;4.13;;;1.70;;
11486;SDS011;10510;47.942;9.442;2022-07-18T06:52:44;4.68;;;2.00;;
11486;SDS011;10510;47.942;9.442;2022-07-18T06:54:44;5.75;;;2.05;;
11486;SDS011;10510;47.942;9.442;2022-07-18T06:56:45;4.85;;;2.00;;
11486;SDS011;10510;47.942;9.442;2022-07-18T06:58:45;4.32;;;1.88;;
11486;SDS011;10510;47.942;9.442;2022-07-18T07:00:49;2.65;;;2.10;;
11486;SDS011;10510;47.942;9.442;2022-07-18T07:02:50;3.20;;;2.20;;
11486;SDS011;10510;47.942;9.442;2022-07-18T07:04:50;3.15;;;1.92;;
11486;SDS011;10510;47.942;9.442;2022-07-18T07:06:50;4.03;;;2.25;;
11486;SDS011;10510;47.942;9.442;2022-07-18T07:08:51;3.80;;;1.88;;
11486;SDS011;10510;47.942;9.442;2022-07-18T07:10:51;2.53;;;1.75;;
11486;SDS011;10510;47.942;9.442;2022-07-18T07:12:51;2.42;;;1.90;;
11486;SDS011;10510;47.942;9.442;2022-07-18T07:14:52;2.38;;;1.77;;
11486;SDS011;10510;47.942;9.442;2022-07-18T07:16:52;4.38;;;1.80;;
11486;SDS011;10510;47.942;9.442;2022-07-18T07:18:52;5.43;;;1.92;;
11486;SDS011;10510;47.942;9.442;2022-07-18T07:20:53;4.57;;;1.90;;
11486;SDS011;10510;47.942;9.442;2022-07-18T07:22:54;3.05;;;1.67;;
11486;SDS011;10510;47.942;9.442;2022-07-18T07:24:55;3.67;;;2.00;;
11486;SDS011;10510;47.942;9.442;2022-07-18T07:26:55;3.15;;;2.08;;
11486;SDS011;10510;47.942;9.442;2022-07-18T07:28:56;4.57;;;2.03;;
11486;SDS011;10510;47.942;9.442;2022-07-18T07:30:56;4.93;;;1.83;;
11486;SDS011;10510;47.942;9.442;2022-07-18T07:32:56;5.93;;;2.07;;
11486;SDS011;10510;47.942;9.442;2022-07-18T07:34:57;4.38;;;2.08;;
11486;SDS011;10510;47.942;9.442;2022-07-18T07:36:57;2.40;;;1.70;;
11486;SDS011;10510;47.942;9.442;2022-07-18T07:38:57;3.70;;;2.10;;
11486;SDS011;10510;47.942;9.442;2022-07-18T07:40:58;3.05;;;1.88;;
11486;SDS011;10510;47.942;9.442;2022-07-18T07:43:08;3.38;;;1.80;;
11486;SDS011;10510;47.942;9.442;2022-07-18T07:45:11;3.20;;;2.00;;
11486;SDS011;10510;47.942;9.442;2022-07-18T07:47:13;2.60;;;2.13;;
11486;SDS011;10510;47.942;9.442;2022-07-18T07:49:13;2.40;;;1.98;;
11486;SDS011;10510;47.942;9.442;2022-07-18T07:51:14;3.95;;;1.83;;
11486;SDS011;10510;47.942;9.442;2022-07-18T07:53:14;2.38;;;1.67;;
11486;SDS011;10510;47.942;9.442;2022-07-18T07:55:15;4.88;;;2.10;;
11486;SDS011;10510;47.942;9.442;2022-07-18T07:57:15;4.18;;;2.22;;
11486;SDS011;10510;47.942;9.442;2022-07-18T07:59:15;4.72;;;2.10;;
11486;SDS011;10510;47.942;9.442;2022-07-18T08:01:18;5.37;;;2.07;;
11486;SDS011;10510;47.942;9.442;2022-07-18T08:03:21;3.90;;;2.00;;
11486;SDS011;10510;47.942;9.442;2022-07-18T08:05:31;2.80;;;2.03;;
11486;SDS011;10510;47.942;9.442;2022-07-18T08:07:32;2.88;;;1.88;;
11486;SDS011;10510;47.942;9.442;2022-07-18T08:09:33;3.08;;;2.05;;
11486;SDS011;10510;47.942;9.442;2022-07-18T08:11:33;3.50;;;1.90;;
11486;SDS011;10510;47.942;9.442;2022-07-18T08:13:33;4.20;;;1.90;;
11486;SDS011;10510;47.942;9.442;2022-07-18T08:15:33;4.25;;;2.03;;
11486;SDS011;10510;47.942;9.442;2022-07-18T08:17:34;4.43;;;2.67;;
11486;SDS011;10510;47.942;9.442;2022-07-18T08:19:34;5.50;;;2.25;;
11486;SDS011;10510;47.942;9.442;2022-07-18T08:21:35;4.45;;;1.92;;
11486;SDS011;10510;47.942;9.442;2022-07-18T08:23:35;3.03;;;2.00;;
11486;SDS011;10510;47.942;9.442;2022-07-18T08:25:37;4.70;;;2.15;;
11486;SDS011;10510;47.942;9.442;2022-07-18T08:27:40;4.45;;;1.98;;
11486;SDS011;10510;47.942;9.442;2022-07-18T08:29:40;4.65;;;1.85;;
11486;SDS011;10510;47.942;9.442;2022-07-18T08:31:40;4.37;;;2.00;;
11486;SDS011;10510;47.942;9.442;2022-07-18T08:33:41;3.50;;;1.92;;
11486;SDS011;10510;47.942;9.442;2022-07-18T08:35:41;2.10;;;1.83;;
11486;SDS011;10510;47.942;9.442;2022-07-18T08:37:41;3.13;;;1.93;;
11486;SDS011;10510;47.942;9.442;2022-07-18T08:39:42;2.28;;;1.90;;
11486;SDS011;10510;47.942;9.442;2022-07-18T08:41:42;6.15;;;2.22;;
11486;SDS011;10510;47.942;9.442;2022-07-18T08:43:47;4.55;;;2.10;;
11486;SDS011;10510;47.942;9.442;2022-07-18T08:45:49;3.13;;;1.80;;
11486;SDS011;10510;47.942;9.442;2022-07-18T08:47:51;6.45;;;2.42;;
11486;SDS011;10510;47.942;9.442;2022-07-18T08:49:51;2.25;;;2.03;;
11486;SDS011;10510;47.942;9.442;2022-07-18T08:51:53;1.98;;;1.63;;
11486;SDS011;10510;47.942;9.442;2022-07-18T08:53:54;2.78;;;1.60;;
11486;SDS011;10510;47.942;9.442;2022-07-18T08:55:55;2.28;;;1.77;;
11486;SDS011;10510;47.942;9.442;2022-07-18T08:57:56;3.67;;;1.95;;
11486;SDS011;10510;47.942;9.442;2022-07-18T08:59:56;2.00;;;1.67;;
11486;SDS011;10510;47.942;9.442;2022-07-18T09:01:57;5.90;;;1.58;;
11486;SDS011;10510;47.942;9.442;2022-07-18T09:03:57;3.25;;;1.80;;
11486;SDS011;10510;47.942;9.442;2022-07-18T09:06:17;2.65;;;1.73;;
11486;SDS011;10510;47.942;9.442;2022-07-18T09:08:18;2.83;;;1.73;;
11486;SDS011;10510;47.942;9.442;2022-07-18T09:10:22;2.95;;;1.83;;
11486;SDS011;10510;47.942;9.442;2022-07-18T09:12:22;5.15;;;1.88;;
11486;SDS011;10510;47.942;9.442;2022-07-18T09:16:58;3.17;;;1.27;;
11486;SDS011;10510;47.942;9.442;2022-07-18T09:19:05;3.45;;;1.50;;
11486;SDS011;10510;47.942;9.442;2022-07-18T09:21:08;6.40;;;1.80;;
11486;SDS011;10510;47.942;9.442;2022-07-18T09:23:13;6.40;;;1.70;;
11486;SDS011;10510;47.942;9.442;2022-07-18T09:25:14;3.65;;;1.63;;
11486;SDS011;10510;47.942;9.442;2022-07-18T09:29:28;2.63;;;1.60;;
11486;SDS011;10510;47.942;9.442;2022-07-18T09:31:30;2.42;;;1.50;;
11486;SDS011;10510;47.942;9.442;2022-07-18T09:33:30;3.28;;;1.35;;
11486;SDS011;10510;47.942;9.442;2022-07-18T09:35:44;2.05;;;1.42;;
11486;SDS011;10510;47.942;9.442;2022-07-18T09:40:18;5.25;;;2.88;;
11486;SDS011;10510;47.942;9.442;2022-07-18T09:42:20;5.20;;;1.70;;
11486;SDS011;10510;47.942;9.442;2022-07-18T09:44:20;2.87;;;1.63;;
11486;SDS011;10510;47.942;9.442;2022-07-18T09:46:21;3.53;;;1.15;;
11486;SDS011;10510;47.942;9.442;2022-07-18T09:48:26;1.48;;;1.00;;
11486;SDS011;10510;47.942;9.442;2022-07-18T09:50:32;3.92;;;1.80;;
11486;SDS011;10510;47.942;9.442;2022-07-18T09:52:40;1.20;;;1.10;;
11486;SDS011;10510;47.942;9.442;2022-07-18T09:54:42;2.50;;;1.40;;
11486;SDS011;10510;47.942;9.442;2022-07-18T09:56:43;4.15;;;1.25;;
11486;SDS011;10510;47.942;9.442;2022-07-18T09:58:54;2.15;;;1.33;;
11486;SDS011;10510;47.942;9.442;2022-07-18T10:00:56;2.05;;;1.02;;
11486;SDS011;10510;47.942;9.442;2022-07-18T10:02:58;3.35;;;1.00;;
11486;SDS011;10510;47.942;9.442;2022-07-18T10:05:00;2.75;;;1.40;;
11486;SDS011;10510;47.942;9.442;2022-07-18T10:07:01;1.27;;;1.17;;
11486;SDS011;10510;47.942;9.442;2022-07-18T10:09:02;3.55;;;1.60;;
11486;SDS011;10510;47.942;9.442;2022-07-18T10:11:03;2.80;;;1.40;;
11486;SDS011;10510;47.942;9.442;2022-07-18T10:13:05;2.30;;;1.20;;
11486;SDS011;10510;47.942;9.442;2022-07-18T10:15:06;2.58;;;1.40;;
11486;SDS011;10510;47.942;9.442;2022-07-18T10:17:07;2.40;;;1.48;;
11486;SDS011;10510;47.942;9.442;2022-07-18T10:19:07;6.50;;;1.45;;
11486;SDS011;10510;47.942;9.442;2022-07-18T10:21:09;6.75;;;1.80;;
11486;SDS011;10510;47.942;9.442;2022-07-18T10:23:18;4.10;;;1.30;;
11486;SDS011;10510;47.942;9.442;2022-07-18T10:25:21;5.88;;;1.40;;
11486;SDS011;10510;47.942;9.442;2022-07-18T10:27:23;1.55;;;1.20;;
11486;SDS011;10510;47.942;9.442;2022-07-18T10:29:25;2.53;;;1.30;;
11486;SDS011;10510;47.942;9.442;2022-07-18T10:31:38;2.17;;;1.50;;
11486;SDS011;10510;47.942;9.442;2022-07-18T10:33:43;5.13;;;2.03;;
11486;SDS011;10510;47.942;9.442;2022-07-18T10:35:58;1.88;;;1.20;;
11486;SDS011;10510;47.942;9.442;2022-07-18T10:38:19;1.40;;;1.05;;
11486;SDS011;10510;47.942;9.442;2022-07-18T10:40:22;1.63;;;1.17;;
11486;SDS011;10510;47.942;9.442;2022-07-18T10:42:29;3.78;;;1.90;;
11486;SDS011;10510;47.942;9.442;2022-07-18T10:44:31;2.35;;;1.15;;
11486;SDS011;10510;47.942;9.442;2022-07-18T10:49:12;3.40;;;1.55;;
11486;SDS011;10510;47.942;9.442;2022-07-18T10:51:13;2.58;;;0.90;;
11486;SDS011;10510;47.942;9.442;2022-07-18T10:53:15;2.35;;;1.20;;
11486;SDS011;10510;47.942;9.442;2022-07-18T10:57:22;5.75;;;1.52;;
11486;SDS011;10510;47.942;9.442;2022-07-18T10:59:22;2.90;;;1.17;;
11486;SDS011;10510;47.942;9.442;2022-07-18T11:01:28;4.05;;;1.25;;
11486;SDS011;10510;47.942;9.442;2022-07-18T11:03:30;5.75;;;1.75;;
11486;SDS011;10510;47.942;9.442;2022-07-18T11:07:30;2.47;;;1.20;;
11486;SDS011;10510;47.942;9.442;2022-07-18T11:09:31;3.58;;;0.98;;
11486;SDS011;10510;47.942;9.442;2022-07-18T11:12:04;7.32;;;1.38;;
11486;SDS011;10510;47.942;9.442;2022-07-18T11:17:04;1.85;;;1.10;;
11486;SDS011;10510;47.942;9.442;2022-07-18T11:21:18;3.38;;;1.20;;
11486;SDS011;10510;47.942;9.442;2022-07-18T11:23:24;1.35;;;1.05;;
11486;SDS011;10510;47.942;9.442;2022-07-18T11:25:26;1.58;;;1.10;;
11486;SDS011;10510;47.942;9.442;2022-07-18T11:27:28;1.50;;;1.00;;
11486;SDS011;10510;47.942;9.442;2022-07-18T11:29:28;1.00;;;0.70;;
11486;SDS011;10510;47.942;9.442;2022-07-18T11:31:30;2.67;;;0.90;;
11486;SDS011;10510;47.942;9.442;2022-07-18T11:33:32;1.33;;;0.88;;
11486;SDS011;10510;47.942;9.442;2022-07-18T11:35:34;0.98;;;0.80;;
11486;SDS011;10510;47.942;9.442;2022-07-18T11:37:35;4.97;;;1.05;;
11486;SDS011;10510;47.942;9.442;2022-07-18T11:39:36;2.03;;;0.95;;
11486;SDS011;10510;47.942;9.442;2022-07-18T11:41:37;2.60;;;1.02;;
11486;SDS011;10510;47.942;9.442;2022-07-18T11:43:40;4.97;;;1.38;;
11486;SDS011;10510;47.942;9.442;2022-07-18T11:45:40;5.60;;;1.50;;
11486;SDS011;10510;47.942;9.442;2022-07-18T11:47:51;4.10;;;1.25;;
11486;SDS011;10510;47.942;9.442;2022-07-18T11:49:55;1.77;;;1.10;;
11486;SDS011;10510;47.942;9.442;2022-07-18T11:51:56;1.65;;;1.13;;
11486;SDS011;10510;47.942;9.442;2022-07-18T11:53:56;2.67;;;1.15;;
11486;SDS011;10510;47.942;9.442;2022-07-18T11:55:56;2.73;;;1.00;;
11486;SDS011;10510;47.942;9.442;2022-07-18T12:00:19;1.35;;;1.02;;
11486;SDS011;10510;47.942;9.442;2022-07-18T12:02:20;1.25;;;1.15;;
11486;SDS011;10510;47.942;9.442;2022-07-18T12:04:21;9.80;;;1.42;;
11486;SDS011;10510;47.942;9.442;2022-07-18T12:06:22;1.88;;;1.35;;
11486;SDS011;10510;47.942;9.442;2022-07-18T12:08:24;1.77;;;1.08;;
11486;SDS011;10510;47.942;9.442;2022-07-18T12:10:52;2.83;;;1.10;;
11486;SDS011;10510;47.942;9.442;2022-07-18T12:13:02;1.52;;;1.08;;
11486;SDS011;10510;47.942;9.442;2022-07-18T12:15:02;2.42;;;1.00;;
11486;SDS011;10510;47.942;9.442;2022-07-18T12:17:03;1.00;;;0.80;;
11486;SDS011;10510;47.942;9.442;2022-07-18T12:19:13;6.07;;;3.00;;
11486;SDS011;10510;47.942;9.442;2022-07-18T12:21:16;1.13;;;0.90;;
11486;SDS011;10510;47.942;9.442;2022-07-18T12:23:16;4.20;;;1.70;;
11486;SDS011;10510;47.942;9.442;2022-07-18T12:25:16;4.00;;;1.52;;
11486;SDS011;10510;47.942;9.442;2022-07-18T12:29:29;1.77;;;1.00;;
11486;SDS011;10510;47.942;9.442;2022-07-18T12:32:02;1.23;;;1.13;;
11486;SDS011;10510;47.942;9.442;2022-07-18T12:34:15;2.30;;;1.08;;
11486;SDS011;10510;47.942;9.442;2022-07-18T12:36:16;1.60;;;0.95;;